Time;durP1;ratioP1;P1;durP2;ratioP2;P2;SDS_P1;SDS_P2;PMS_P1;PMS_P2;Temp;Humidity;BMP_temperature;BMP_pressure;BME280_temperature;BME280_humidity;BME280_pressure;Samples;Min_cycle;Max_cycle;Signal;HPM_P1;HPM_P2
2022/01/20 00:01:42;;;;;;;3.55;2.63;;;;;;;;;;7386064;19;20018;-73
2022/01/20 00:03:40;;;;;;;5.38;2.35;;;;;;;;;;7385254;19;20009;-74
2022/01/20 00:27:28;;;;;;;2.95;1.83;;;;;;;;;;7383615;19;20496;-73
2022/01/20 00:32:52;;;;;;;4.47;2.20;;;;;;;;;;7385408;19;20052;-73
2022/01/20 00:37:39;;;;;;;4.35;2.20;;;;;;;;;;7384639;19;20011;-73
2022/01/20 00:40:05;;;;;;;3.97;1.92;;;;;;;;;;7385176;19;20464;-74
2022/01/20 00:42:30;;;;;;;2.85;1.95;;;;;;;;;;7383915;19;20024;-73
2022/01/20 00:44:56;;;;;;;3.95;2.45;;;;;;;;;;7387547;19;20477;-74
2022/01/20 00:47:22;;;;;;;3.30;2.15;;;;;;;;;;7385490;19;20017;-74
2022/01/20 00:49:47;;;;;;;4.15;2.00;;;;;;;;;;7385377;19;20313;-75
2022/01/20 00:52:13;;;;;;;4.03;2.25;;;;;;;;;;7385826;19;20351;-75
2022/01/20 00:54:38;;;;;;;2.58;1.80;;;;;;;;;;7386399;19;20003;-73
2022/01/20 00:57:04;;;;;;;3.08;2.00;;;;;;;;;;7384933;19;20395;-74
2022/01/20 00:59:30;;;;;;;4.22;2.50;;;;;;;;;;7386284;19;20035;-73
2022/01/20 01:01:58;;;;;;;5.28;2.05;;;;;;;;;;7385959;19;20011;-73
2022/01/20 01:04:25;;;;;;;3.33;1.80;;;;;;;;;;7388088;19;20006;-73
2022/01/20 01:09:38;;;;;;;3.03;1.98;;;;;;;;;;7385637;19;20418;-73
2022/01/20 01:12:06;;;;;;;2.67;1.77;;;;;;;;;;7384420;19;20428;-73
2022/01/20 01:14:33;;;;;;;2.80;1.90;;;;;;;;;;7386669;19;20464;-73
2022/01/20 01:24:39;;;;;;;3.53;2.03;;;;;;;;;;7395353;19;20010;-74
2022/01/20 01:27:04;;;;;;;4.43;1.60;;;;;;;;;;7391273;19;20520;-74
2022/01/20 01:32:13;;;;;;;4.78;1.70;;;;;;;;;;7392870;19;20690;-73
2022/01/20 01:34:41;;;;;;;2.70;1.95;;;;;;;;;;7391746;19;20034;-74
2022/01/20 01:37:07;;;;;;;4.80;2.22;;;;;;;;;;7391585;19;20010;-74
2022/01/20 01:39:33;;;;;;;3.33;1.95;;;;;;;;;;7389188;19;20389;-74
2022/01/20 01:41:59;;;;;;;3.53;2.20;;;;;;;;;;7389936;19;20031;-76
2022/01/20 01:44:29;;;;;;;3.33;1.77;;;;;;;;;;7393248;19;20010;-75
2022/01/20 01:46:57;;;;;;;2.35;1.58;;;;;;;;;;7390291;19;20121;-73
2022/01/20 01:49:22;;;;;;;2.38;1.60;;;;;;;;;;7390218;19;20436;-73
2022/01/20 01:51:47;;;;;;;2.78;1.83;;;;;;;;;;7391067;19;19994;-73
2022/01/20 01:54:16;;;;;;;4.20;1.88;;;;;;;;;;7391449;19;19999;-73
2022/01/20 01:56:42;;;;;;;6.38;1.70;;;;;;;;;;7391957;19;20449;-73
2022/01/20 01:59:08;;;;;;;2.92;1.73;;;;;;;;;;7390774;19;20136;-73
2022/01/20 02:01:36;;;;;;;2.53;1.67;;;;;;;;;;7390971;19;20052;-73
2022/01/20 02:04:18;;;;;;;2.65;1.50;;;;;;;;;;7391769;19;20014;-73
2022/01/20 02:19:55;;;;;;;3.42;1.60;;;;;;;;;;7390445;19;20027;-73
2022/01/20 02:22:20;;;;;;;5.03;2.03;;;;;;;;;;7390467;19;20007;-73
2022/01/20 02:24:46;;;;;;;3.58;2.20;;;;;;;;;;7389273;19;20474;-73
2022/01/20 02:27:11;;;;;;;2.65;1.52;;;;;;;;;;7389613;19;20014;-73
2022/01/20 02:29:36;;;;;;;2.50;1.63;;;;;;;;;;7388537;19;20009;-73
2022/01/20 02:32:02;;;;;;;2.75;1.60;;;;;;;;;;7390609;19;20002;-73
2022/01/20 02:34:30;;;;;;;2.53;1.40;;;;;;;;;;7389282;19;20002;-73
2022/01/20 02:36:58;;;;;;;2.50;1.52;;;;;;;;;;7391368;19;20063;-73
2022/01/20 02:47:19;;;;;;;2.08;1.35;;;;;;;;;;7388710;19;20021;-73
2022/01/20 02:49:46;;;;;;;2.38;1.80;;;;;;;;;;7387449;19;20010;-73
2022/01/20 02:52:11;;;;;;;6.32;2.13;;;;;;;;;;7390767;19;20471;-73
2022/01/20 02:54:37;;;;;;;3.85;1.67;;;;;;;;;;7390299;19;20018;-73
2022/01/20 02:57:04;;;;;;;3.38;1.60;;;;;;;;;;7389789;19;20018;-73
2022/01/20 02:59:29;;;;;;;2.28;1.48;;;;;;;;;;7388974;19;20029;-73
2022/01/20 03:01:55;;;;;;;2.47;1.88;;;;;;;;;;7391643;19;20800;-73
2022/01/20 03:04:24;;;;;;;4.03;1.80;;;;;;;;;;7390121;19;21272;-73
2022/01/20 03:06:49;;;;;;;2.22;1.50;;;;;;;;;;7388395;19;20139;-73
2022/01/20 03:09:15;;;;;;;3.60;1.90;;;;;;;;;;7386512;19;20048;-73
2022/01/20 03:11:40;;;;;;;3.00;1.75;;;;;;;;;;7390029;19;20010;-73
2022/01/20 03:14:05;;;;;;;4.43;2.10;;;;;;;;;;7388031;19;20011;-73
2022/01/20 03:16:31;;;;;;;4.10;1.90;;;;;;;;;;7389488;19;20003;-74
2022/01/20 03:18:56;;;;;;;3.83;1.95;;;;;;;;;;7385783;19;20337;-74
2022/01/20 03:21:22;;;;;;;4.30;1.88;;;;;;;;;;7388280;19;20002;-74
2022/01/20 03:23:47;;;;;;;2.92;1.92;;;;;;;;;;7386043;19;20003;-75
2022/01/20 03:26:12;;;;;;;3.40;2.30;;;;;;;;;;7389079;19;20436;-75
2022/01/20 03:28:38;;;;;;;3.95;2.10;;;;;;;;;;7384558;19;20551;-74
2022/01/20 03:31:03;;;;;;;3.20;1.90;;;;;;;;;;7389560;19;20003;-75
2022/01/20 03:33:28;;;;;;;2.63;1.73;;;;;;;;;;7386976;19;20018;-74
2022/01/20 03:35:54;;;;;;;2.50;1.73;;;;;;;;;;7386791;19;20315;-75
2022/01/20 03:38:20;;;;;;;3.17;1.90;;;;;;;;;;7385893;19;20003;-74
2022/01/20 03:40:45;;;;;;;3.58;2.03;;;;;;;;;;7384551;19;20011;-74
2022/01/20 03:43:10;;;;;;;4.18;2.00;;;;;;;;;;7385712;19;20003;-74
2022/01/20 03:45:36;;;;;;;3.00;2.05;;;;;;;;;;7388875;19;20032;-73
2022/01/20 03:48:10;;;;;;;2.88;2.10;;;;;;;;;;7387065;19;20021;-74
2022/01/20 03:53:20;;;;;;;3.53;2.15;;;;;;;;;;7387984;19;20397;-73
2022/01/20 03:55:46;;;;;;;2.92;1.73;;;;;;;;;;7386151;19;20072;-73
2022/01/20 03:58:11;;;;;;;3.30;2.08;;;;;;;;;;7386170;19;20706;-73
2022/01/20 04:00:37;;;;;;;3.70;2.28;;;;;;;;;;7384276;19;20353;-73
2022/01/20 04:03:02;;;;;;;3.35;2.15;;;;;;;;;;7384902;19;20021;-73
2022/01/20 04:05:28;;;;;;;4.07;2.38;;;;;;;;;;7383482;19;20010;-73
2022/01/20 04:07:53;;;;;;;3.72;2.15;;;;;;;;;;7386732;19;20541;-73
2022/01/20 04:10:19;;;;;;;3.20;2.00;;;;;;;;;;7384014;19;19999;-73
2022/01/20 04:12:44;;;;;;;3.08;2.30;;;;;;;;;;7386119;19;20391;-73
2022/01/20 04:15:10;;;;;;;4.03;2.00;;;;;;;;;;7384904;19;20019;-73
2022/01/20 04:17:40;;;;;;;3.45;1.98;;;;;;;;;;7384883;19;20011;-72
2022/01/20 04:20:06;;;;;;;2.92;1.77;;;;;;;;;;7383466;19;20014;-73
2022/01/20 04:22:32;;;;;;;2.88;2.05;;;;;;;;;;7387297;19;20468;-73
2022/01/20 04:24:57;;;;;;;4.28;2.30;;;;;;;;;;7386358;19;20017;-72
2022/01/20 04:27:22;;;;;;;3.47;1.85;;;;;;;;;;7386537;19;20314;-72
2022/01/20 04:29:48;;;;;;;4.28;2.17;;;;;;;;;;7384776;19;20015;-73
2022/01/20 04:32:13;;;;;;;4.30;2.40;;;;;;;;;;7387965;19;20002;-72
2022/01/20 04:34:39;;;;;;;2.28;1.85;;;;;;;;;;7383570;19;20105;-72
2022/01/20 04:37:05;;;;;;;3.10;1.73;;;;;;;;;;7385812;19;20027;-72
2022/01/20 04:39:34;;;;;;;4.13;2.10;;;;;;;;;;7384111;19;20006;-72
2022/01/20 04:42:00;;;;;;;4.57;2.22;;;;;;;;;;7385852;19;20476;-73
2022/01/20 04:47:12;;;;;;;2.95;2.10;;;;;;;;;;7385249;19;20010;-73
2022/01/20 04:57:49;;;;;;;3.33;2.20;;;;;;;;;;7394832;19;20017;-73
2022/01/20 05:00:14;;;;;;;3.30;2.03;;;;;;;;;;7389276;19;20003;-73
2022/01/20 05:02:40;;;;;;;2.75;1.77;;;;;;;;;;7388225;19;20014;-73
2022/01/20 05:05:08;;;;;;;2.83;1.67;;;;;;;;;;7391219;19;20034;-73
2022/01/20 05:07:33;;;;;;;3.05;1.98;;;;;;;;;;7393038;19;20556;-73
2022/01/20 05:09:58;;;;;;;2.97;1.92;;;;;;;;;;7387551;19;20149;-73
2022/01/20 05:12:39;;;;;;;2.78;1.60;;;;;;;;;;7389540;19;20046;-73
2022/01/20 05:15:04;;;;;;;3.08;1.50;;;;;;;;;;7390019;19;20015;-73
2022/01/20 05:17:30;;;;;;;2.45;1.88;;;;;;;;;;7390614;19;20035;-73
2022/01/20 05:19:55;;;;;;;2.47;1.70;;;;;;;;;;7385535;19;20150;-72
2022/01/20 05:22:20;;;;;;;2.58;1.58;;;;;;;;;;7391521;19;20331;-73
2022/01/20 05:24:45;;;;;;;2.83;1.65;;;;;;;;;;7391326;19;20508;-72
2022/01/20 05:27:11;;;;;;;3.58;1.60;;;;;;;;;;7390558;19;20021;-72
2022/01/20 05:29:39;;;;;;;3.53;1.75;;;;;;;;;;7385122;19;20029;-73
2022/01/20 05:32:04;;;;;;;2.58;1.50;;;;;;;;;;7380164;19;20085;-74
2022/01/20 05:34:30;;;;;;;2.58;1.77;;;;;;;;;;7384620;19;20011;-74
2022/01/20 05:36:55;;;;;;;2.45;1.77;;;;;;;;;;7386879;19;20204;-74
2022/01/20 05:39:20;;;;;;;1.45;1.35;;;;;;;;;;7381987;19;20010;-74
2022/01/20 05:41:46;;;;;;;3.10;2.00;;;;;;;;;;7384032;19;20010;-75
2022/01/20 05:44:11;;;;;;;2.13;1.48;;;;;;;;;;7381466;19;20006;-74
2022/01/20 05:46:43;;;;;;;2.72;1.70;;;;;;;;;;7383894;19;20590;-74
2022/01/20 05:49:09;;;;;;;2.67;1.52;;;;;;;;;;7383524;19;20118;-74
2022/01/20 05:51:36;;;;;;;3.35;1.88;;;;;;;;;;7388348;19;20115;-74
2022/01/20 05:54:02;;;;;;;2.20;1.48;;;;;;;;;;7388931;19;20262;-73
2022/01/20 05:56:28;;;;;;;2.33;1.88;;;;;;;;;;7387380;19;20073;-74
2022/01/20 05:58:53;;;;;;;3.20;1.63;;;;;;;;;;7386765;19;20122;-74
2022/01/20 06:01:18;;;;;;;2.78;1.90;;;;;;;;;;7385506;19;19998;-74
2022/01/20 06:03:43;;;;;;;3.55;2.72;;;;;;;;;;7387707;19;20006;-74
2022/01/20 06:06:12;;;;;;;2.05;1.75;;;;;;;;;;7383400;19;20489;-74
2022/01/20 06:08:38;;;;;;;3.95;2.30;;;;;;;;;;7385407;19;20014;-74
2022/01/20 06:11:04;;;;;;;2.05;1.40;;;;;;;;;;7388328;19;20003;-74
2022/01/20 06:13:30;;;;;;;4.30;1.85;;;;;;;;;;7386059;19;20233;-74
2022/01/20 06:15:55;;;;;;;3.00;1.77;;;;;;;;;;7384768;19;20503;-75
2022/01/20 06:18:21;;;;;;;2.45;1.77;;;;;;;;;;7387184;19;20085;-74
2022/01/20 06:20:47;;;;;;;2.45;1.58;;;;;;;;;;7384392;19;20003;-74
2022/01/20 06:23:13;;;;;;;2.35;1.52;;;;;;;;;;7381474;19;20413;-74
2022/01/20 06:25:38;;;;;;;3.20;2.00;;;;;;;;;;7384389;19;20126;-74
2022/01/20 06:28:05;;;;;;;2.03;1.58;;;;;;;;;;7381846;19;20027;-74
2022/01/20 06:30:32;;;;;;;1.83;1.50;;;;;;;;;;7377185;19;20002;-74
2022/01/20 06:32:58;;;;;;;2.78;1.80;;;;;;;;;;7384096;19;20443;-74
2022/01/20 06:35:23;;;;;;;2.67;1.75;;;;;;;;;;7381329;19;20029;-75
2022/01/20 06:37:49;;;;;;;2.00;1.60;;;;;;;;;;7377029;19;20378;-74
2022/01/20 06:40:15;;;;;;;2.05;1.60;;;;;;;;;;7376595;19;20010;-73
2022/01/20 06:42:41;;;;;;;2.65;2.05;;;;;;;;;;7376398;19;20007;-77
2022/01/20 06:45:09;;;;;;;5.38;1.70;;;;;;;;;;7380918;19;20010;-78
2022/01/20 06:47:35;;;;;;;2.33;1.55;;;;;;;;;;7378821;19;20016;-73
2022/01/20 06:50:01;;;;;;;3.00;1.70;;;;;;;;;;7380664;19;20027;-74
2022/01/20 06:52:27;;;;;;;1.80;1.60;;;;;;;;;;7381283;19;20002;-74
2022/01/20 06:54:53;;;;;;;1.88;1.48;;;;;;;;;;7381757;19;20002;-75
2022/01/20 06:57:18;;;;;;;2.65;1.50;;;;;;;;;;7382630;19;20335;-74
2022/01/20 06:59:44;;;;;;;1.85;1.45;;;;;;;;;;7380925;19;20021;-74
2022/01/20 07:02:09;;;;;;;5.97;2.90;;;;;;;;;;7378510;19;20013;-73
2022/01/20 07:04:35;;;;;;;2.30;1.60;;;;;;;;;;7382599;19;20013;-72
2022/01/20 07:07:01;;;;;;;2.70;2.00;;;;;;;;;;7384287;19;20014;-73
2022/01/20 07:09:26;;;;;;;2.08;1.40;;;;;;;;;;7381153;19;20437;-73
2022/01/20 07:11:52;;;;;;;2.60;1.63;;;;;;;;;;7382292;19;20030;-73
2022/01/20 07:14:17;;;;;;;2.80;1.88;;;;;;;;;;7380411;19;20002;-71
2022/01/20 07:16:42;;;;;;;2.42;1.85;;;;;;;;;;7382944;19;20045;-71
2022/01/20 07:19:08;;;;;;;2.97;1.70;;;;;;;;;;7380634;19;20130;-71
2022/01/20 07:21:33;;;;;;;3.35;2.10;;;;;;;;;;7382103;19;20022;-70
2022/01/20 07:23:59;;;;;;;2.60;1.70;;;;;;;;;;7381085;19;20010;-71
2022/01/20 07:26:24;;;;;;;2.33;1.92;;;;;;;;;;7382068;19;20014;-71
2022/01/20 07:28:49;;;;;;;1.80;1.52;;;;;;;;;;7380896;19;20018;-70
2022/01/20 07:31:20;;;;;;;2.55;1.70;;;;;;;;;;7381342;19;20112;-71
2022/01/20 07:33:46;;;;;;;7.63;3.00;;;;;;;;;;7381173;19;20046;-73
2022/01/20 07:36:11;;;;;;;2.50;1.80;;;;;;;;;;7374660;19;20011;-73
2022/01/20 07:38:36;;;;;;;4.10;2.72;;;;;;;;;;7378726;19;20010;-71
2022/01/20 07:41:02;;;;;;;2.00;1.80;;;;;;;;;;7378764;19;20394;-71
2022/01/20 07:43:27;;;;;;;3.03;1.85;;;;;;;;;;7383291;19;20010;-70
2022/01/20 07:45:52;;;;;;;1.75;1.38;;;;;;;;;;7379865;19;20066;-71
2022/01/20 07:48:18;;;;;;;2.33;1.55;;;;;;;;;;7376112;19;20014;-70
2022/01/20 07:50:43;;;;;;;2.67;2.13;;;;;;;;;;7380021;19;20014;-71
2022/01/20 07:53:08;;;;;;;2.03;1.60;;;;;;;;;;7384459;19;20006;-71
2022/01/20 07:55:34;;;;;;;3.80;1.98;;;;;;;;;;7377876;19;20433;-71
2022/01/20 07:57:59;;;;;;;3.78;2.88;;;;;;;;;;7380990;19;20022;-71
2022/01/20 08:00:25;;;;;;;2.97;1.60;;;;;;;;;;7378773;19;20058;-72
2022/01/20 08:02:50;;;;;;;3.55;2.13;;;;;;;;;;7383469;19;20011;-71
2022/01/20 08:05:16;;;;;;;3.05;2.08;;;;;;;;;;7383829;19;20415;-71
2022/01/20 08:07:41;;;;;;;2.95;1.77;;;;;;;;;;7379240;19;20306;-73
2022/01/20 08:10:08;;;;;;;2.60;1.90;;;;;;;;;;7377172;19;20006;-71
2022/01/20 08:12:33;;;;;;;2.25;1.58;;;;;;;;;;7379046;19;20006;-72
2022/01/20 08:14:59;;;;;;;2.13;1.52;;;;;;;;;;7379314;19;20038;-72
2022/01/20 08:17:25;;;;;;;1.70;1.23;;;;;;;;;;7375803;19;20019;-72
2022/01/20 08:19:51;;;;;;;2.50;1.60;;;;;;;;;;7378288;19;20022;-71
2022/01/20 08:22:16;;;;;;;2.78;1.60;;;;;;;;;;7375127;19;20006;-72
2022/01/20 08:24:42;;;;;;;2.58;1.77;;;;;;;;;;7382192;19;20044;-72
2022/01/20 08:27:09;;;;;;;3.05;1.85;;;;;;;;;;7372988;19;20332;-72
2022/01/20 08:29:35;;;;;;;4.30;1.65;;;;;;;;;;7374574;19;20017;-71
2022/01/20 08:32:01;;;;;;;2.50;1.58;;;;;;;;;;7375545;19;20038;-70
2022/01/20 08:34:26;;;;;;;3.25;2.05;;;;;;;;;;7376626;19;20007;-71
2022/01/20 08:36:55;;;;;;;1.90;1.45;;;;;;;;;;7378756;19;20039;-71
2022/01/20 08:42:03;;;;;;;2.35;1.70;;;;;;;;;;7376797;19;20002;-70
2022/01/20 08:44:28;;;;;;;2.47;1.77;;;;;;;;;;7379123;19;20377;-71
2022/01/20 08:46:54;;;;;;;3.75;1.83;;;;;;;;;;7376060;19;20020;-73
2022/01/20 08:49:23;;;;;;;2.10;1.35;;;;;;;;;;7377498;19;20016;-73
2022/01/20 08:51:49;;;;;;;2.05;1.52;;;;;;;;;;7379428;19;20018;-71
2022/01/20 08:54:15;;;;;;;1.80;1.40;;;;;;;;;;7375943;19;20006;-71
2022/01/20 08:56:41;;;;;;;6.72;1.67;;;;;;;;;;7375516;19;20010;-71
2022/01/20 08:59:08;;;;;;;2.42;1.70;;;;;;;;;;7373369;19;20017;-73
2022/01/20 09:01:34;;;;;;;2.00;1.50;;;;;;;;;;7373901;19;20018;-73
2022/01/20 09:04:00;;;;;;;2.70;1.70;;;;;;;;;;7380132;19;20345;-73
2022/01/20 09:06:25;;;;;;;4.38;1.60;;;;;;;;;;7378995;19;20019;-73
2022/01/20 09:08:51;;;;;;;3.30;1.80;;;;;;;;;;7376684;19;20023;-73
2022/01/20 09:11:22;;;;;;;3.53;1.88;;;;;;;;;;7370693;19;20390;-73
2022/01/20 09:16:34;;;;;;;2.53;1.70;;;;;;;;;;7378125;19;20117;-73
2022/01/20 09:18:59;;;;;;;2.50;2.00;;;;;;;;;;7376671;19;20034;-71
2022/01/20 09:21:26;;;;;;;2.25;1.88;;;;;;;;;;7377208;19;20018;-73
2022/01/20 09:23:51;;;;;;;4.75;3.05;;;;;;;;;;7379303;19;20014;-72
2022/01/20 09:26:17;;;;;;;6.15;3.72;;;;;;;;;;7374692;19;20149;-71
2022/01/20 09:28:43;;;;;;;4.35;2.65;;;;;;;;;;7374100;19;20007;-72
2022/01/20 09:31:09;;;;;;;4.10;2.53;;;;;;;;;;7379436;19;20010;-71
2022/01/20 09:33:34;;;;;;;3.95;2.75;;;;;;;;;;7376358;19;20694;-72
2022/01/20 09:36:00;;;;;;;5.47;3.55;;;;;;;;;;7377372;19;21049;-71
2022/01/20 09:38:27;;;;;;;4.00;2.30;;;;;;;;;;7377346;19;20018;-70
2022/01/20 09:40:53;;;;;;;6.07;2.78;;;;;;;;;;7388450;19;20381;-72
2022/01/20 09:43:18;;;;;;;5.18;2.58;;;;;;;;;;7384072;19;20006;-72
2022/01/20 09:45:48;;;;;;;3.40;2.40;;;;;;;;;;7382521;19;20021;-72
2022/01/20 09:48:13;;;;;;;5.10;2.78;;;;;;;;;;7382041;19;20017;-70
2022/01/20 09:50:39;;;;;;;3.72;2.10;;;;;;;;;;7381624;19;20019;-70
2022/01/20 09:53:04;;;;;;;4.47;2.00;;;;;;;;;;7382088;19;20034;-71
2022/01/20 09:55:32;;;;;;;3.65;1.77;;;;;;;;;;7382295;19;20556;-72
2022/01/20 09:57:58;;;;;;;2.83;1.77;;;;;;;;;;7384500;19;20042;-71
2022/01/20 10:00:24;;;;;;;2.17;1.73;;;;;;;;;;7384132;19;20862;-71
2022/01/20 10:02:58;;;;;;;3.55;1.90;;;;;;;;;;7378299;19;20959;-71
2022/01/20 10:05:29;;;;;;;5.70;1.95;;;;;;;;;;7381973;19;20111;-72
2022/01/20 10:08:00;;;;;;;3.42;1.63;;;;;;;;;;7382927;19;20099;-71
2022/01/20 10:10:36;;;;;;;4.03;1.88;;;;;;;;;;7380729;19;20014;-72
2022/01/20 10:13:06;;;;;;;4.60;1.77;;;;;;;;;;7384303;19;20053;-72
2022/01/20 10:15:32;;;;;;;2.95;1.55;;;;;;;;;;7379920;19;20014;-71
2022/01/20 10:18:05;;;;;;;3.50;1.60;;;;;;;;;;7379659;19;20035;-71
2022/01/20 10:20:31;;;;;;;2.92;1.85;;;;;;;;;;7381946;19;20010;-71
2022/01/20 10:22:56;;;;;;;4.30;1.92;;;;;;;;;;7378531;19;20016;-72
2022/01/20 10:25:22;;;;;;;7.93;1.70;;;;;;;;;;7384645;19;20032;-75
2022/01/20 10:27:52;;;;;;;2.20;1.50;;;;;;;;;;7378470;19;20021;-74
2022/01/20 10:30:20;;;;;;;4.03;1.73;;;;;;;;;;7377504;19;20498;-74
2022/01/20 10:32:48;;;;;;;2.60;1.60;;;;;;;;;;7380640;19;20357;-74
2022/01/20 10:35:18;;;;;;;3.20;1.50;;;;;;;;;;7375164;19;21055;-74
2022/01/20 10:38:01;;;;;;;4.70;1.60;;;;;;;;;;7373722;19;20010;-74
2022/01/20 10:40:27;;;;;;;1.92;1.23;;;;;;;;;;7376043;19;20030;-74
2022/01/20 10:42:53;;;;;;;3.28;1.40;;;;;;;;;;7375445;19;20465;-76
2022/01/20 10:45:32;;;;;;;2.35;1.60;;;;;;;;;;7381881;19;20070;-73
2022/01/20 10:47:59;;;;;;;2.28;1.35;;;;;;;;;;7384900;19;20010;-74
2022/01/20 10:50:35;;;;;;;3.75;1.40;;;;;;;;;;7383007;19;20010;-74
2022/01/20 10:53:00;;;;;;;2.63;1.60;;;;;;;;;;7383709;19;20027;-75
2022/01/20 10:55:35;;;;;;;4.35;1.58;;;;;;;;;;7385255;19;20014;-75
2022/01/20 10:58:20;;;;;;;2.42;1.58;;;;;;;;;;7381995;19;20031;-75
2022/01/20 11:00:48;;;;;;;2.00;1.42;;;;;;;;;;7385854;19;20006;-73
2022/01/20 11:03:14;;;;;;;5.07;1.55;;;;;;;;;;7381748;19;20125;-74
2022/01/20 11:05:41;;;;;;;2.55;1.67;;;;;;;;;;7380380;19;20468;-73
2022/01/20 11:08:07;;;;;;;4.13;2.00;;;;;;;;;;7384811;19;20031;-74
2022/01/20 11:10:33;;;;;;;3.95;1.80;;;;;;;;;;7379688;19;20048;-74
2022/01/20 11:12:58;;;;;;;4.82;1.73;;;;;;;;;;7384961;19;20013;-73
2022/01/20 11:15:25;;;;;;;2.92;1.60;;;;;;;;;;7382328;19;20006;-74
2022/01/20 11:17:55;;;;;;;2.78;1.65;;;;;;;;;;7380632;19;20113;-74
2022/01/20 11:20:23;;;;;;;4.05;1.63;;;;;;;;;;7379523;19;20471;-74
2022/01/20 11:22:53;;;;;;;2.97;1.50;;;;;;;;;;7385215;19;20054;-74
2022/01/20 11:25:21;;;;;;;2.15;1.30;;;;;;;;;;7383152;19;20014;-75
2022/01/20 11:27:47;;;;;;;2.17;1.40;;;;;;;;;;7384653;19;20006;-74
2022/01/20 11:30:21;;;;;;;6.50;1.50;;;;;;;;;;7381299;19;20017;-74
2022/01/20 11:33:10;;;;;;;6.72;1.35;;;;;;;;;;7380491;19;20925;-74
2022/01/20 11:35:56;;;;;;;4.38;1.45;;;;;;;;;;7382657;19;20006;-74
2022/01/20 11:38:23;;;;;;;2.35;1.30;;;;;;;;;;7383459;19;20450;-73
2022/01/20 11:40:57;;;;;;;1.65;1.20;;;;;;;;;;7383422;19;20023;-74
2022/01/20 11:43:39;;;;;;;4.17;1.50;;;;;;;;;;7384400;19;20086;-74
2022/01/20 11:46:11;;;;;;;4.82;1.45;;;;;;;;;;7386220;19;20018;-74
2022/01/20 11:48:55;;;;;;;6.53;1.60;;;;;;;;;;7383703;19;20034;-74
2022/01/20 11:51:22;;;;;;;4.20;1.30;;;;;;;;;;7383061;19;20018;-74
2022/01/20 11:53:59;;;;;;;3.60;1.35;;;;;;;;;;7384272;19;20391;-73
2022/01/20 11:56:35;;;;;;;3.70;1.25;;;;;;;;;;7384467;19;20429;-74
2022/01/20 11:59:05;;;;;;;4.68;1.40;;;;;;;;;;7383990;19;20010;-75
2022/01/20 12:01:53;;;;;;;4.80;1.30;;;;;;;;;;7381259;19;20092;-74
2022/01/20 12:04:30;;;;;;;10.10;1.90;;;;;;;;;;7383030;19;20010;-75
2022/01/20 12:06:55;;;;;;;2.80;1.25;;;;;;;;;;7383918;19;20002;-74
2022/01/20 12:09:39;;;;;;;2.38;1.30;;;;;;;;;;7382535;19;20098;-75
2022/01/20 12:12:18;;;;;;;2.10;1.25;;;;;;;;;;7382680;19;20027;-74
2022/01/20 12:14:43;;;;;;;4.43;1.30;;;;;;;;;;7380944;19;20414;-74
2022/01/20 12:17:11;;;;;;;3.38;1.17;;;;;;;;;;7383649;19;20331;-74
2022/01/20 12:19:37;;;;;;;6.80;1.85;;;;;;;;;;7380832;19;20029;-72
2022/01/20 12:22:05;;;;;;;5.72;1.38;;;;;;;;;;7381051;19;20010;-72
2022/01/20 12:24:31;;;;;;;6.05;1.13;;;;;;;;;;7380226;19;20020;-72
2022/01/20 12:26:57;;;;;;;3.90;1.15;;;;;;;;;;7381905;19;20093;-72
2022/01/20 12:29:33;;;;;;;1.90;0.90;;;;;;;;;;7381464;19;20011;-72
2022/01/20 12:32:00;;;;;;;3.58;0.98;;;;;;;;;;7382254;19;20027;-72
2022/01/20 12:34:25;;;;;;;4.88;1.15;;;;;;;;;;7383208;19;20030;-72
2022/01/20 12:36:56;;;;;;;5.70;1.50;;;;;;;;;;7383150;19;20530;-74
2022/01/20 12:39:30;;;;;;;6.05;1.67;;;;;;;;;;7380303;19;20105;-73
2022/01/20 12:41:57;;;;;;;5.13;1.40;;;;;;;;;;7380910;19;20038;-73
2022/01/20 12:44:23;;;;;;;2.92;1.45;;;;;;;;;;7383035;19;20018;-74
2022/01/20 12:46:49;;;;;;;6.53;1.90;;;;;;;;;;7382856;19;20010;-74
2022/01/20 12:49:18;;;;;;;9.52;2.67;;;;;;;;;;7379572;19;20103;-73
2022/01/20 12:51:54;;;;;;;11.70;1.95;;;;;;;;;;7383338;19;20460;-73
2022/01/20 12:54:27;;;;;;;9.88;2.30;;;;;;;;;;7384248;19;20515;-73
2022/01/20 12:57:11;;;;;;;1.65;0.90;;;;;;;;;;7382352;19;20405;-75
2022/01/20 12:59:41;;;;;;;6.07;1.60;;;;;;;;;;7378202;19;20313;-75
2022/01/20 13:02:12;;;;;;;5.05;0.98;;;;;;;;;;7373518;19;20015;-72
2022/01/20 13:04:39;;;;;;;9.55;1.90;;;;;;;;;;7376895;19;20011;-73
2022/01/20 13:07:08;;;;;;;4.07;1.63;;;;;;;;;;7376285;19;20006;-74
2022/01/20 13:09:43;;;;;;;3.47;0.95;;;;;;;;;;7374558;19;20402;-74
2022/01/20 13:12:10;;;;;;;6.30;1.33;;;;;;;;;;7378299;19;20018;-73
2022/01/20 13:14:43;;;;;;;5.50;1.30;;;;;;;;;;7381970;19;20512;-73
2022/01/20 13:17:12;;;;;;;5.03;0.98;;;;;;;;;;7380041;19;20002;-72
2022/01/20 13:19:40;;;;;;;3.80;1.00;;;;;;;;;;7378424;19;20653;-70
2022/01/20 13:22:18;;;;;;;2.25;1.00;;;;;;;;;;7380755;19;20072;-74
2022/01/20 13:24:43;;;;;;;2.20;0.88;;;;;;;;;;7379653;19;20025;-73
2022/01/20 13:27:12;;;;;;;3.95;1.02;;;;;;;;;;7383271;19;20006;-73
2022/01/20 13:29:44;;;;;;;5.43;1.25;;;;;;;;;;7381641;19;20430;-72
2022/01/20 13:32:10;;;;;;;3.13;1.10;;;;;;;;;;7382662;19;20010;-72
2022/01/20 13:34:35;;;;;;;2.75;1.27;;;;;;;;;;7380208;19;20341;-72
2022/01/20 13:37:01;;;;;;;6.38;1.10;;;;;;;;;;7383532;19;20010;-73
2022/01/20 13:39:32;;;;;;;5.20;0.98;;;;;;;;;;7377902;19;20019;-72
2022/01/20 13:42:04;;;;;;;2.25;0.98;;;;;;;;;;7383658;19;20030;-73
2022/01/20 13:47:13;;;;;;;5.72;1.30;;;;;;;;;;7385007;19;20009;-72
2022/01/20 13:49:55;;;;;;;3.47;1.30;;;;;;;;;;7381576;19;20374;-72
2022/01/20 13:52:21;;;;;;;1.77;1.00;;;;;;;;;;7384081;19;20120;-74
2022/01/20 13:54:56;;;;;;;3.38;1.02;;;;;;;;;;7379772;19;20006;-74
2022/01/20 13:57:23;;;;;;;6.10;1.40;;;;;;;;;;7384032;19;20022;-73
2022/01/20 13:59:54;;;;;;;4.53;1.20;;;;;;;;;;7378476;19;20437;-75
2022/01/20 14:02:25;;;;;;;4.10;1.08;;;;;;;;;;7376802;19;20096;-73
2022/01/20 14:04:51;;;;;;;3.63;1.50;;;;;;;;;;7380686;19;20600;-74
2022/01/20 14:07:18;;;;;;;2.08;1.15;;;;;;;;;;7379314;19;20378;-73
2022/01/20 14:09:43;;;;;;;3.85;1.25;;;;;;;;;;7377763;19;20519;-75
2022/01/20 14:12:09;;;;;;;4.40;1.33;;;;;;;;;;7382314;19;20010;-75
2022/01/20 14:14:34;;;;;;;6.50;1.30;;;;;;;;;;7378474;19;20007;-74
2022/01/20 14:17:06;;;;;;;5.15;1.30;;;;;;;;;;7379316;19;20015;-75
2022/01/20 14:19:41;;;;;;;5.82;1.50;;;;;;;;;;7381032;19;20258;-74
2022/01/20 14:22:06;;;;;;;4.68;1.42;;;;;;;;;;7383669;19;20022;-74
2022/01/20 14:24:31;;;;;;;5.70;1.10;;;;;;;;;;7382144;19;20007;-74
2022/01/20 14:27:08;;;;;;;7.38;2.13;;;;;;;;;;7384264;19;20007;-75
2022/01/20 14:29:34;;;;;;;7.47;1.70;;;;;;;;;;7381681;19;20031;-74
2022/01/20 14:31:59;;;;;;;2.85;1.20;;;;;;;;;;7381604;19;20018;-75
2022/01/20 14:34:24;;;;;;;3.03;1.10;;;;;;;;;;7384069;19;20006;-75
2022/01/20 14:36:49;;;;;;;1.33;0.57;;;;;;;;;;7378038;19;20014;-75
2022/01/20 14:39:15;;;;;;;2.33;0.38;;;;;;;;;;7382186;19;20006;-77
2022/01/20 14:41:40;;;;;;;2.80;0.20;;;;;;;;;;7380744;19;20576;-75
2022/01/20 14:44:05;;;;;;;3.00;0.40;;;;;;;;;;7383454;19;20090;-74
2022/01/20 14:46:31;;;;;;;1.13;0.20;;;;;;;;;;7382079;19;20019;-75
2022/01/20 14:48:56;;;;;;;0.60;0.28;;;;;;;;;;7381684;19;20014;-75
2022/01/20 14:51:24;;;;;;;0.32;0.15;;;;;;;;;;7381020;19;20038;-76
2022/01/20 14:53:49;;;;;;;1.23;0.50;;;;;;;;;;7384612;19;20010;-78
2022/01/20 14:56:19;;;;;;;0.30;0.20;;;;;;;;;;7381554;19;20017;-76
2022/01/20 14:58:45;;;;;;;0.82;0.40;;;;;;;;;;7380852;19;20042;-77
2022/01/20 15:01:10;;;;;;;1.08;0.30;;;;;;;;;;7380581;19;20432;-77
2022/01/20 15:03:35;;;;;;;1.08;0.43;;;;;;;;;;7378854;19;20006;-76
2022/01/20 15:06:00;;;;;;;2.60;0.60;;;;;;;;;;7382050;19;20018;-76
2022/01/20 15:08:26;;;;;;;1.45;0.90;;;;;;;;;;7379321;19;20017;-76
2022/01/20 15:10:52;;;;;;;1.52;0.50;;;;;;;;;;7384039;19;20474;-77
2022/01/20 15:13:17;;;;;;;0.80;0.60;;;;;;;;;;7383345;19;20021;-76
2022/01/20 15:15:42;;;;;;;1.77;0.80;;;;;;;;;;7381195;19;20534;-78
2022/01/20 15:18:08;;;;;;;1.70;0.40;;;;;;;;;;7386830;19;20007;-78
2022/01/20 15:20:33;;;;;;;1.55;0.68;;;;;;;;;;7383615;19;20089;-79
2022/01/20 15:22:59;;;;;;;3.30;0.77;;;;;;;;;;7387153;19;20019;-78
2022/01/20 15:25:25;;;;;;;1.55;0.63;;;;;;;;;;7386851;19;20030;-79
2022/01/20 15:27:52;;;;;;;3.47;1.02;;;;;;;;;;7387374;19;20104;-78
2022/01/20 15:30:18;;;;;;;1.80;0.70;;;;;;;;;;7381542;19;20420;-77
2022/01/20 15:32:44;;;;;;;3.15;0.93;;;;;;;;;;7386198;19;20006;-77
2022/01/20 15:35:10;;;;;;;2.50;1.23;;;;;;;;;;7384178;19;20026;-77
2022/01/20 15:37:36;;;;;;;4.10;1.10;;;;;;;;;;7386197;19;20050;-78
2022/01/20 15:40:06;;;;;;;1.17;0.75;;;;;;;;;;7381932;19;20010;-78
2022/01/20 15:42:31;;;;;;;1.75;1.10;;;;;;;;;;7387819;19;20010;-77
2022/01/20 15:44:57;;;;;;;3.15;1.17;;;;;;;;;;7388293;19;20306;-79
2022/01/20 15:47:22;;;;;;;1.83;0.70;;;;;;;;;;7386108;19;20006;-77
2022/01/20 15:49:48;;;;;;;2.10;1.00;;;;;;;;;;7381637;19;20022;-78
2022/01/20 15:52:13;;;;;;;1.65;0.88;;;;;;;;;;7385427;19;20002;-78
2022/01/20 15:54:39;;;;;;;2.65;1.10;;;;;;;;;;7383420;19;20014;-77
2022/01/20 15:57:04;;;;;;;1.27;0.93;;;;;;;;;;7385934;19;20010;-79
2022/01/20 15:59:29;;;;;;;3.85;1.00;;;;;;;;;;7384407;19;20129;-77
2022/01/20 16:01:54;;;;;;;3.03;1.13;;;;;;;;;;7374815;19;20013;-77
2022/01/20 16:04:20;;;;;;;7.47;2.78;;;;;;;;;;7368407;19;20007;-78
2022/01/20 16:06:47;;;;;;;8.73;1.70;;;;;;;;;;7366573;19;20023;-77